sensor_id;sensor_type;location;lat;lon;timestamp;P1;durP1;ratioP1;P2;durP2;ratioP2
56381;SDS011;50261;51.150;4.470;2022-11-15T00:01:38;29.92;;;20.73;;
56381;SDS011;50261;51.150;4.470;2022-11-15T00:04:22;31.77;;;20.35;;
56381;SDS011;50261;51.150;4.470;2022-11-15T00:07:06;30.25;;;20.55;;
56381;SDS011;50261;51.150;4.470;2022-11-15T00:09:50;33.45;;;20.63;;
56381;SDS011;50261;51.150;4.470;2022-11-15T00:15:19;30.73;;;19.58;;
56381;SDS011;50261;51.150;4.470;2022-11-15T00:18:03;29.00;;;20.45;;
56381;SDS011;50261;51.150;4.470;2022-11-15T00:20:47;31.85;;;21.75;;
56381;SDS011;50261;51.150;4.470;2022-11-15T00:23:32;30.80;;;20.58;;
56381;SDS011;50261;51.150;4.470;2022-11-15T00:26:16;29.73;;;21.33;;
56381;SDS011;50261;51.150;4.470;2022-11-15T00:29:00;27.95;;;20.17;;
56381;SDS011;50261;51.150;4.470;2022-11-15T00:31:44;30.80;;;20.42;;
56381;SDS011;50261;51.150;4.470;2022-11-15T00:34:28;27.27;;;20.20;;
56381;SDS011;50261;51.150;4.470;2022-11-15T00:37:12;30.63;;;20.67;;
56381;SDS011;50261;51.150;4.470;2022-11-15T00:39:56;30.92;;;19.30;;
56381;SDS011;50261;51.150;4.470;2022-11-15T00:42:41;30.55;;;20.02;;
56381;SDS011;50261;51.150;4.470;2022-11-15T00:45:25;25.58;;;16.98;;
56381;SDS011;50261;51.150;4.470;2022-11-15T00:48:10;24.75;;;18.27;;
56381;SDS011;50261;51.150;4.470;2022-11-15T00:50:54;29.60;;;17.80;;
56381;SDS011;50261;51.150;4.470;2022-11-15T00:53:38;26.33;;;17.65;;
56381;SDS011;50261;51.150;4.470;2022-11-15T00:56:22;23.20;;;17.55;;
56381;SDS011;50261;51.150;4.470;2022-11-15T00:59:06;24.25;;;18.30;;
56381;SDS011;50261;51.150;4.470;2022-11-15T01:01:51;27.20;;;17.58;;
56381;SDS011;50261;51.150;4.470;2022-11-15T01:04:35;23.77;;;16.38;;
56381;SDS011;50261;51.150;4.470;2022-11-15T01:07:19;24.58;;;17.05;;
56381;SDS011;50261;51.150;4.470;2022-11-15T01:10:04;26.27;;;16.77;;
56381;SDS011;50261;51.150;4.470;2022-11-15T01:12:48;22.73;;;16.20;;
56381;SDS011;50261;51.150;4.470;2022-11-15T01:15:32;23.60;;;16.70;;
56381;SDS011;50261;51.150;4.470;2022-11-15T01:18:16;27.33;;;16.02;;
56381;SDS011;50261;51.150;4.470;2022-11-15T01:21:04;22.20;;;15.73;;
56381;SDS011;50261;51.150;4.470;2022-11-15T01:23:48;21.63;;;15.52;;
56381;SDS011;50261;51.150;4.470;2022-11-15T01:26:32;22.05;;;15.63;;
56381;SDS011;50261;51.150;4.470;2022-11-15T01:29:16;20.67;;;15.03;;
56381;SDS011;50261;51.150;4.470;2022-11-15T01:32:00;20.88;;;13.25;;
56381;SDS011;50261;51.150;4.470;2022-11-15T01:34:44;21.77;;;15.10;;
56381;SDS011;50261;51.150;4.470;2022-11-15T01:37:28;17.65;;;13.57;;
56381;SDS011;50261;51.150;4.470;2022-11-15T01:40:12;20.20;;;13.73;;
56381;SDS011;50261;51.150;4.470;2022-11-15T01:42:56;18.40;;;13.82;;
56381;SDS011;50261;51.150;4.470;2022-11-15T01:45:40;20.02;;;13.32;;
56381;SDS011;50261;51.150;4.470;2022-11-15T01:48:25;19.67;;;14.45;;
56381;SDS011;50261;51.150;4.470;2022-11-15T01:51:13;22.02;;;14.93;;
56381;SDS011;50261;51.150;4.470;2022-11-15T01:53:58;21.33;;;15.20;;
56381;SDS011;50261;51.150;4.470;2022-11-15T01:56:46;22.17;;;15.27;;
56381;SDS011;50261;51.150;4.470;2022-11-15T01:59:32;23.50;;;14.80;;
56381;SDS011;50261;51.150;4.470;2022-11-15T02:05:00;21.70;;;15.15;;
56381;SDS011;50261;51.150;4.470;2022-11-15T02:07:44;25.15;;;14.80;;
56381;SDS011;50261;51.150;4.470;2022-11-15T02:10:29;21.40;;;14.13;;
56381;SDS011;50261;51.150;4.470;2022-11-15T02:13:14;21.02;;;14.75;;
56381;SDS011;50261;51.150;4.470;2022-11-15T02:16:00;21.95;;;14.90;;
56381;SDS011;50261;51.150;4.470;2022-11-15T02:18:52;20.58;;;13.32;;
56381;SDS011;50261;51.150;4.470;2022-11-15T02:30:23;23.52;;;14.55;;
56381;SDS011;50261;51.150;4.470;2022-11-15T02:36:28;25.67;;;14.88;;
56381;SDS011;50261;51.150;4.470;2022-11-15T02:39:23;22.17;;;14.70;;
56381;SDS011;50261;51.150;4.470;2022-11-15T02:42:11;18.73;;;13.95;;
56381;SDS011;50261;51.150;4.470;2022-11-15T02:45:17;20.67;;;13.18;;
56381;SDS011;50261;51.150;4.470;2022-11-15T02:48:03;23.17;;;13.55;;
56381;SDS011;50261;51.150;4.470;2022-11-15T02:50:47;20.08;;;14.35;;
56381;SDS011;50261;51.150;4.470;2022-11-15T02:53:31;18.75;;;13.18;;
56381;SDS011;50261;51.150;4.470;2022-11-15T02:56:15;22.08;;;12.52;;
56381;SDS011;50261;51.150;4.470;2022-11-15T03:05:00;19.80;;;13.20;;
56381;SDS011;50261;51.150;4.470;2022-11-15T03:07:53;22.10;;;13.27;;
56381;SDS011;50261;51.150;4.470;2022-11-15T03:16:11;19.83;;;12.30;;
56381;SDS011;50261;51.150;4.470;2022-11-15T03:19:02;18.27;;;12.32;;
56381;SDS011;50261;51.150;4.470;2022-11-15T03:21:48;17.98;;;11.88;;
56381;SDS011;50261;51.150;4.470;2022-11-15T03:24:34;17.65;;;12.02;;
56381;SDS011;50261;51.150;4.470;2022-11-15T03:27:19;16.45;;;12.23;;
56381;SDS011;50261;51.150;4.470;2022-11-15T03:30:06;18.90;;;12.75;;
56381;SDS011;50261;51.150;4.470;2022-11-15T03:32:52;19.40;;;11.25;;
56381;SDS011;50261;51.150;4.470;2022-11-15T03:35:38;16.30;;;11.13;;
56381;SDS011;50261;51.150;4.470;2022-11-15T03:38:25;18.92;;;11.65;;
56381;SDS011;50261;51.150;4.470;2022-11-15T03:41:17;15.40;;;11.10;;
56381;SDS011;50261;51.150;4.470;2022-11-15T03:44:25;19.33;;;12.25;;
56381;SDS011;50261;51.150;4.470;2022-11-15T03:47:29;18.58;;;11.73;;
56381;SDS011;50261;51.150;4.470;2022-11-15T03:50:17;17.95;;;10.38;;
56381;SDS011;50261;51.150;4.470;2022-11-15T03:53:02;15.50;;;9.82;;
56381;SDS011;50261;51.150;4.470;2022-11-15T03:55:46;17.95;;;10.52;;
56381;SDS011;50261;51.150;4.470;2022-11-15T03:58:30;19.05;;;9.23;;
56381;SDS011;50261;51.150;4.470;2022-11-15T04:01:15;12.40;;;7.57;;
56381;SDS011;50261;51.150;4.470;2022-11-15T04:03:59;15.52;;;8.68;;
56381;SDS011;50261;51.150;4.470;2022-11-15T04:06:43;14.98;;;7.28;;
56381;SDS011;50261;51.150;4.470;2022-11-15T04:09:27;12.88;;;8.15;;
56381;SDS011;50261;51.150;4.470;2022-11-15T04:12:12;13.18;;;7.63;;
56381;SDS011;50261;51.150;4.470;2022-11-15T04:14:57;13.38;;;7.45;;
56381;SDS011;50261;51.150;4.470;2022-11-15T04:17:54;15.07;;;7.63;;
56381;SDS011;50261;51.150;4.470;2022-11-15T04:20:38;15.88;;;7.43;;
56381;SDS011;50261;51.150;4.470;2022-11-15T04:23:41;10.30;;;7.25;;
56381;SDS011;50261;51.150;4.470;2022-11-15T04:26:44;13.05;;;7.65;;
56381;SDS011;50261;51.150;4.470;2022-11-15T04:29:28;12.43;;;6.78;;
56381;SDS011;50261;51.150;4.470;2022-11-15T04:32:18;11.18;;;6.75;;
56381;SDS011;50261;51.150;4.470;2022-11-15T04:35:02;14.47;;;7.33;;
56381;SDS011;50261;51.150;4.470;2022-11-15T04:40:30;11.25;;;7.03;;
56381;SDS011;50261;51.150;4.470;2022-11-15T04:43:14;16.00;;;7.50;;
56381;SDS011;50261;51.150;4.470;2022-11-15T04:45:58;14.32;;;7.22;;
56381;SDS011;50261;51.150;4.470;2022-11-15T04:48:42;11.85;;;7.00;;
56381;SDS011;50261;51.150;4.470;2022-11-15T04:51:26;12.70;;;7.13;;
56381;SDS011;50261;51.150;4.470;2022-11-15T04:54:10;12.05;;;6.90;;
56381;SDS011;50261;51.150;4.470;2022-11-15T04:56:54;12.07;;;7.20;;
56381;SDS011;50261;51.150;4.470;2022-11-15T04:59:38;12.63;;;6.75;;
56381;SDS011;50261;51.150;4.470;2022-11-15T05:02:21;12.70;;;7.47;;
56381;SDS011;50261;51.150;4.470;2022-11-15T05:05:06;11.25;;;6.30;;
56381;SDS011;50261;51.150;4.470;2022-11-15T05:07:50;14.75;;;6.32;;
56381;SDS011;50261;51.150;4.470;2022-11-15T05:10:35;11.73;;;6.03;;
56381;SDS011;50261;51.150;4.470;2022-11-15T05:13:19;10.15;;;6.68;;
56381;SDS011;50261;51.150;4.470;2022-11-15T05:16:03;12.88;;;6.60;;
56381;SDS011;50261;51.150;4.470;2022-11-15T05:18:50;10.50;;;5.88;;
56381;SDS011;50261;51.150;4.470;2022-11-15T05:21:35;10.93;;;6.57;;
56381;SDS011;50261;51.150;4.470;2022-11-15T05:24:19;9.52;;;6.25;;
56381;SDS011;50261;51.150;4.470;2022-11-15T05:27:03;13.33;;;6.23;;
56381;SDS011;50261;51.150;4.470;2022-11-15T05:29:47;10.75;;;6.25;;
56381;SDS011;50261;51.150;4.470;2022-11-15T05:32:31;10.32;;;6.00;;
56381;SDS011;50261;51.150;4.470;2022-11-15T05:35:20;8.30;;;5.65;;
56381;SDS011;50261;51.150;4.470;2022-11-15T05:38:07;9.35;;;6.00;;
56381;SDS011;50261;51.150;4.470;2022-11-15T05:40:50;14.32;;;5.93;;
56381;SDS011;50261;51.150;4.470;2022-11-15T05:43:35;10.52;;;5.88;;
56381;SDS011;50261;51.150;4.470;2022-11-15T05:46:20;10.55;;;6.05;;
56381;SDS011;50261;51.150;4.470;2022-11-15T05:49:05;10.48;;;5.95;;
56381;SDS011;50261;51.150;4.470;2022-11-15T05:51:50;13.48;;;6.57;;
56381;SDS011;50261;51.150;4.470;2022-11-15T05:54:35;12.68;;;6.75;;
56381;SDS011;50261;51.150;4.470;2022-11-15T05:57:19;12.82;;;5.85;;
56381;SDS011;50261;51.150;4.470;2022-11-15T06:00:03;10.02;;;5.78;;
56381;SDS011;50261;51.150;4.470;2022-11-15T06:02:48;13.18;;;6.22;;
56381;SDS011;50261;51.150;4.470;2022-11-15T06:05:31;8.65;;;4.72;;
56381;SDS011;50261;51.150;4.470;2022-11-15T06:08:15;7.82;;;5.18;;
56381;SDS011;50261;51.150;4.470;2022-11-15T06:13:43;8.80;;;5.15;;
56381;SDS011;50261;51.150;4.470;2022-11-15T06:16:28;6.78;;;4.45;;
56381;SDS011;50261;51.150;4.470;2022-11-15T06:19:12;11.02;;;4.90;;
56381;SDS011;50261;51.150;4.470;2022-11-15T06:21:56;9.95;;;4.68;;
56381;SDS011;50261;51.150;4.470;2022-11-15T06:24:40;6.68;;;4.45;;
56381;SDS011;50261;51.150;4.470;2022-11-15T06:27:24;8.32;;;4.70;;
56381;SDS011;50261;51.150;4.470;2022-11-15T06:30:08;7.82;;;4.47;;
56381;SDS011;50261;51.150;4.470;2022-11-15T06:32:58;8.50;;;4.55;;
56381;SDS011;50261;51.150;4.470;2022-11-15T06:35:42;9.88;;;4.28;;
56381;SDS011;50261;51.150;4.470;2022-11-15T06:38:26;8.23;;;4.30;;
56381;SDS011;50261;51.150;4.470;2022-11-15T06:41:10;6.38;;;3.80;;
56381;SDS011;50261;51.150;4.470;2022-11-15T06:43:54;11.98;;;4.10;;
56381;SDS011;50261;51.150;4.470;2022-11-15T06:46:38;14.35;;;4.75;;
56381;SDS011;50261;51.150;4.470;2022-11-15T06:49:22;9.33;;;5.47;;
56381;SDS011;50261;51.150;4.470;2022-11-15T06:52:06;12.90;;;5.60;;
56381;SDS011;50261;51.150;4.470;2022-11-15T06:54:50;11.25;;;5.40;;
56381;SDS011;50261;51.150;4.470;2022-11-15T06:57:34;7.38;;;4.75;;
56381;SDS011;50261;51.150;4.470;2022-11-15T07:00:19;9.75;;;4.32;;
56381;SDS011;50261;51.150;4.470;2022-11-15T07:03:03;7.68;;;4.22;;
56381;SDS011;50261;51.150;4.470;2022-11-15T07:05:51;9.52;;;4.60;;
56381;SDS011;50261;51.150;4.470;2022-11-15T07:08:36;11.13;;;4.45;;
56381;SDS011;50261;51.150;4.470;2022-11-15T07:11:20;9.38;;;4.45;;
56381;SDS011;50261;51.150;4.470;2022-11-15T07:14:04;9.75;;;4.80;;
56381;SDS011;50261;51.150;4.470;2022-11-15T07:16:49;10.27;;;4.20;;
56381;SDS011;50261;51.150;4.470;2022-11-15T07:19:33;9.13;;;4.93;;
56381;SDS011;50261;51.150;4.470;2022-11-15T07:22:17;7.13;;;4.88;;
56381;SDS011;50261;51.150;4.470;2022-11-15T07:25:01;13.05;;;5.15;;
56381;SDS011;50261;51.150;4.470;2022-11-15T07:27:53;9.88;;;5.22;;
56381;SDS011;50261;51.150;4.470;2022-11-15T07:30:38;7.28;;;4.70;;
56381;SDS011;50261;51.150;4.470;2022-11-15T07:33:22;8.33;;;4.73;;
56381;SDS011;50261;51.150;4.470;2022-11-15T07:36:06;12.48;;;5.38;;
56381;SDS011;50261;51.150;4.470;2022-11-15T07:38:50;14.55;;;4.75;;
56381;SDS011;50261;51.150;4.470;2022-11-15T07:41:34;12.57;;;4.78;;
56381;SDS011;50261;51.150;4.470;2022-11-15T07:44:18;9.05;;;4.45;;
56381;SDS011;50261;51.150;4.470;2022-11-15T07:47:02;13.90;;;4.50;;
56381;SDS011;50261;51.150;4.470;2022-11-15T07:49:46;9.60;;;3.85;;
56381;SDS011;50261;51.150;4.470;2022-11-15T07:52:30;7.70;;;4.28;;
56381;SDS011;50261;51.150;4.470;2022-11-15T07:55:14;6.82;;;4.30;;
56381;SDS011;50261;51.150;4.470;2022-11-15T07:58:02;10.18;;;4.22;;
56381;SDS011;50261;51.150;4.470;2022-11-15T08:00:46;9.63;;;4.43;;
56381;SDS011;50261;51.150;4.470;2022-11-15T08:03:31;10.63;;;4.32;;
56381;SDS011;50261;51.150;4.470;2022-11-15T08:08:59;14.25;;;5.20;;
56381;SDS011;50261;51.150;4.470;2022-11-15T08:11:43;10.82;;;4.55;;
56381;SDS011;50261;51.150;4.470;2022-11-15T08:14:27;10.30;;;4.40;;
56381;SDS011;50261;51.150;4.470;2022-11-15T08:17:11;14.05;;;4.13;;
56381;SDS011;50261;51.150;4.470;2022-11-15T08:19:55;8.55;;;3.50;;
56381;SDS011;50261;51.150;4.470;2022-11-15T08:22:39;9.80;;;4.15;;
56381;SDS011;50261;51.150;4.470;2022-11-15T08:25:24;8.27;;;3.90;;
56381;SDS011;50261;51.150;4.470;2022-11-15T08:28:10;9.40;;;4.40;;
56381;SDS011;50261;51.150;4.470;2022-11-15T08:30:54;15.18;;;4.95;;
56381;SDS011;50261;51.150;4.470;2022-11-15T08:33:38;7.68;;;3.72;;
56381;SDS011;50261;51.150;4.470;2022-11-15T08:36:22;6.72;;;3.90;;
56381;SDS011;50261;51.150;4.470;2022-11-15T08:39:06;9.95;;;3.38;;
56381;SDS011;50261;51.150;4.470;2022-11-15T08:41:49;5.90;;;3.42;;
56381;SDS011;50261;51.150;4.470;2022-11-15T08:44:33;7.85;;;3.42;;
56381;SDS011;50261;51.150;4.470;2022-11-15T08:47:18;8.35;;;4.03;;
56381;SDS011;50261;51.150;4.470;2022-11-15T08:50:02;5.45;;;3.05;;
56381;SDS011;50261;51.150;4.470;2022-11-15T08:52:46;7.15;;;3.13;;
56381;SDS011;50261;51.150;4.470;2022-11-15T08:55:32;10.65;;;3.22;;
56381;SDS011;50261;51.150;4.470;2022-11-15T08:58:16;8.48;;;2.67;;
56381;SDS011;50261;51.150;4.470;2022-11-15T09:01:00;5.68;;;3.03;;
56381;SDS011;50261;51.150;4.470;2022-11-15T09:03:44;6.55;;;2.65;;
56381;SDS011;50261;51.150;4.470;2022-11-15T09:09:12;5.05;;;1.95;;
56381;SDS011;50261;51.150;4.470;2022-11-15T09:11:56;11.30;;;2.45;;
56381;SDS011;50261;51.150;4.470;2022-11-15T09:14:40;6.18;;;2.28;;
56381;SDS011;50261;51.150;4.470;2022-11-15T09:17:24;7.25;;;1.95;;
56381;SDS011;50261;51.150;4.470;2022-11-15T09:20:08;5.53;;;2.08;;
56381;SDS011;50261;51.150;4.470;2022-11-15T09:22:52;4.95;;;1.95;;
56381;SDS011;50261;51.150;4.470;2022-11-15T09:25:37;5.65;;;2.30;;
56381;SDS011;50261;51.150;4.470;2022-11-15T09:28:20;6.22;;;1.60;;
56381;SDS011;50261;51.150;4.470;2022-11-15T09:31:05;10.40;;;2.75;;
56381;SDS011;50261;51.150;4.470;2022-11-15T09:33:49;6.38;;;2.33;;
56381;SDS011;50261;51.150;4.470;2022-11-15T09:36:33;7.50;;;2.17;;
56381;SDS011;50261;51.150;4.470;2022-11-15T09:39:18;9.60;;;1.75;;
56381;SDS011;50261;51.150;4.470;2022-11-15T09:42:12;6.78;;;1.60;;
56381;SDS011;50261;51.150;4.470;2022-11-15T09:45:23;7.47;;;1.60;;
56381;SDS011;50261;51.150;4.470;2022-11-15T09:48:15;3.63;;;1.20;;
56381;SDS011;50261;51.150;4.470;2022-11-15T09:51:08;8.20;;;1.55;;
56381;SDS011;50261;51.150;4.470;2022-11-15T09:53:42;6.63;;;1.33;;
56381;SDS011;50261;51.150;4.470;2022-11-15T09:56:31;3.35;;;1.45;;
56381;SDS011;50261;51.150;4.470;2022-11-15T10:01:49;4.78;;;1.05;;
56381;SDS011;50261;51.150;4.470;2022-11-15T10:04:19;6.90;;;1.65;;
56381;SDS011;50261;51.150;4.470;2022-11-15T10:06:46;4.80;;;1.30;;
56381;SDS011;50261;51.150;4.470;2022-11-15T10:12:12;5.03;;;1.15;;
56381;SDS011;50261;51.150;4.470;2022-11-15T10:14:39;5.07;;;1.20;;
56381;SDS011;50261;51.150;4.470;2022-11-15T10:19:45;6.20;;;1.27;;
56381;SDS011;50261;51.150;4.470;2022-11-15T10:24:47;3.03;;;0.82;;
56381;SDS011;50261;51.150;4.470;2022-11-15T10:27:14;6.47;;;1.08;;
56381;SDS011;50261;51.150;4.470;2022-11-15T10:29:44;4.38;;;1.20;;
56381;SDS011;50261;51.150;4.470;2022-11-15T10:32:11;5.97;;;1.38;;
56381;SDS011;50261;51.150;4.470;2022-11-15T10:34:37;5.10;;;1.17;;
56381;SDS011;50261;51.150;4.470;2022-11-15T10:37:03;4.95;;;0.90;;
56381;SDS011;50261;51.150;4.470;2022-11-15T10:39:29;6.57;;;1.33;;
56381;SDS011;50261;51.150;4.470;2022-11-15T10:41:55;6.82;;;1.35;;
56381;SDS011;50261;51.150;4.470;2022-11-15T10:44:24;4.15;;;0.88;;
56381;SDS011;50261;51.150;4.470;2022-11-15T10:49:26;4.55;;;1.35;;
56381;SDS011;50261;51.150;4.470;2022-11-15T10:51:57;5.78;;;1.10;;
56381;SDS011;50261;51.150;4.470;2022-11-15T10:56:53;6.28;;;0.90;;
56381;SDS011;50261;51.150;4.470;2022-11-15T10:59:26;3.85;;;1.20;;
56381;SDS011;50261;51.150;4.470;2022-11-15T11:01:53;7.03;;;1.33;;
56381;SDS011;50261;51.150;4.470;2022-11-15T11:04:19;3.53;;;0.95;;
56381;SDS011;50261;51.150;4.470;2022-11-15T11:06:49;2.40;;;0.93;;
56381;SDS011;50261;51.150;4.470;2022-11-15T11:11:50;6.80;;;1.20;;
56381;SDS011;50261;51.150;4.470;2022-11-15T11:14:23;7.15;;;1.20;;
56381;SDS011;50261;51.150;4.470;2022-11-15T11:42:44;8.80;;;1.42;;
56381;SDS011;50261;51.150;4.470;2022-11-15T11:50:23;9.57;;;1.15;;
56381;SDS011;50261;51.150;4.470;2022-11-15T12:00:41;4.15;;;1.20;;
56381;SDS011;50261;51.150;4.470;2022-11-15T12:06:51;5.32;;;1.00;;
56381;SDS011;50261;51.150;4.470;2022-11-15T12:08:49;10.38;;;1.45;;
56381;SDS011;50261;51.150;4.470;2022-11-15T12:13:44;9.45;;;1.45;;
56381;SDS011;50261;51.150;4.470;2022-11-15T12:18:39;8.35;;;1.17;;
56381;SDS011;50261;51.150;4.470;2022-11-15T12:21:34;4.93;;;0.85;;
56381;SDS011;50261;51.150;4.470;2022-11-15T12:23:59;4.82;;;1.20;;
56381;SDS011;50261;51.150;4.470;2022-11-15T12:26:26;4.97;;;1.15;;
56381;SDS011;50261;51.150;4.470;2022-11-15T12:29:03;4.28;;;1.02;;
56381;SDS011;50261;51.150;4.470;2022-11-15T12:34:00;8.57;;;1.13;;
56381;SDS011;50261;51.150;4.470;2022-11-15T12:36:32;4.20;;;0.98;;
56381;SDS011;50261;51.150;4.470;2022-11-15T12:39:00;4.53;;;1.10;;
56381;SDS011;50261;51.150;4.470;2022-11-15T12:41:28;8.90;;;1.25;;
56381;SDS011;50261;51.150;4.470;2022-11-15T12:43:54;5.78;;;1.25;;
56381;SDS011;50261;51.150;4.470;2022-11-15T12:46:21;7.30;;;1.50;;
56381;SDS011;50261;51.150;4.470;2022-11-15T12:48:49;4.90;;;1.30;;
56381;SDS011;50261;51.150;4.470;2022-11-15T12:51:15;7.25;;;0.93;;
56381;SDS011;50261;51.150;4.470;2022-11-15T12:53:41;7.78;;;1.40;;
56381;SDS011;50261;51.150;4.470;2022-11-15T12:58:43;6.63;;;1.38;;
56381;SDS011;50261;51.150;4.470;2022-11-15T13:06:39;3.53;;;1.30;;
56381;SDS011;50261;51.150;4.470;2022-11-15T13:09:49;8.85;;;1.48;;
56381;SDS011;50261;51.150;4.470;2022-11-15T13:11:51;5.00;;;1.58;;
56381;SDS011;50261;51.150;4.470;2022-11-15T13:17:01;3.95;;;1.30;;
56381;SDS011;50261;51.150;4.470;2022-11-15T13:19:26;3.92;;;1.30;;
56381;SDS011;50261;51.150;4.470;2022-11-15T13:21:52;10.18;;;1.75;;
56381;SDS011;50261;51.150;4.470;2022-11-15T13:24:37;3.42;;;0.82;;
56381;SDS011;50261;51.150;4.470;2022-11-15T13:27:16;5.10;;;1.40;;
56381;SDS011;50261;51.150;4.470;2022-11-15T13:29:43;3.30;;;1.20;;
56381;SDS011;50261;51.150;4.470;2022-11-15T13:32:12;3.92;;;1.13;;
56381;SDS011;50261;51.150;4.470;2022-11-15T13:34:38;6.60;;;1.00;;
56381;SDS011;50261;51.150;4.470;2022-11-15T13:39:47;5.95;;;1.00;;
56381;SDS011;50261;51.150;4.470;2022-11-15T13:42:20;7.65;;;1.60;;
56381;SDS011;50261;51.150;4.470;2022-11-15T13:44:59;8.77;;;1.33;;
56381;SDS011;50261;51.150;4.470;2022-11-15T13:47:26;4.82;;;1.38;;
56381;SDS011;50261;51.150;4.470;2022-11-15T13:49:52;3.08;;;0.95;;
56381;SDS011;50261;51.150;4.470;2022-11-15T13:52:18;4.65;;;1.10;;
56381;SDS011;50261;51.150;4.470;2022-11-15T13:54:56;5.43;;;1.20;;
56381;SDS011;50261;51.150;4.470;2022-11-15T13:57:24;5.55;;;1.08;;
56381;SDS011;50261;51.150;4.470;2022-11-15T13:59:57;3.58;;;1.40;;
56381;SDS011;50261;51.150;4.470;2022-11-15T14:02:26;8.20;;;1.30;;
56381;SDS011;50261;51.150;4.470;2022-11-15T14:04:56;6.28;;;1.00;;
56381;SDS011;50261;51.150;4.470;2022-11-15T14:07:23;2.63;;;1.13;;
56381;SDS011;50261;51.150;4.470;2022-11-15T14:09:49;3.30;;;1.08;;
56381;SDS011;50261;51.150;4.470;2022-11-15T14:12:26;3.25;;;1.20;;
56381;SDS011;50261;51.150;4.470;2022-11-15T14:14:52;5.53;;;1.40;;
56381;SDS011;50261;51.150;4.470;2022-11-15T14:17:20;7.10;;;1.17;;
56381;SDS011;50261;51.150;4.470;2022-11-15T14:19:46;2.65;;;1.30;;
56381;SDS011;50261;51.150;4.470;2022-11-15T14:22:13;2.92;;;1.20;;
56381;SDS011;50261;51.150;4.470;2022-11-15T14:24:40;6.38;;;1.73;;
56381;SDS011;50261;51.150;4.470;2022-11-15T14:30:04;6.25;;;1.30;;
56381;SDS011;50261;51.150;4.470;2022-11-15T14:32:41;5.25;;;1.38;;
56381;SDS011;50261;51.150;4.470;2022-11-15T14:35:26;4.13;;;1.60;;
56381;SDS011;50261;51.150;4.470;2022-11-15T14:37:51;2.60;;;1.13;;
56381;SDS011;50261;51.150;4.470;2022-11-15T14:40:21;5.60;;;1.00;;
56381;SDS011;50261;51.150;4.470;2022-11-15T14:42:48;4.57;;;1.30;;
56381;SDS011;50261;51.150;4.470;2022-11-15T14:45:17;4.95;;;0.90;;
56381;SDS011;50261;51.150;4.470;2022-11-15T14:47:43;8.27;;;1.20;;
56381;SDS011;50261;51.150;4.470;2022-11-15T14:50:13;3.78;;;1.23;;
56381;SDS011;50261;51.150;4.470;2022-11-15T14:52:39;2.45;;;1.13;;
56381;SDS011;50261;51.150;4.470;2022-11-15T14:55:27;6.13;;;1.23;;
56381;SDS011;50261;51.150;4.470;2022-11-15T14:57:52;3.28;;;1.10;;
56381;SDS011;50261;51.150;4.470;2022-11-15T15:00:17;3.38;;;1.10;;
56381;SDS011;50261;51.150;4.470;2022-11-15T15:02:44;4.03;;;1.30;;
56381;SDS011;50261;51.150;4.470;2022-11-15T15:05:55;9.10;;;1.50;;
56381;SDS011;50261;51.150;4.470;2022-11-15T15:07:56;2.85;;;1.25;;
56381;SDS011;50261;51.150;4.470;2022-11-15T15:10:22;4.20;;;1.90;;
56381;SDS011;50261;51.150;4.470;2022-11-15T15:12:48;4.25;;;1.70;;
56381;SDS011;50261;51.150;4.470;2022-11-15T15:15:16;3.33;;;1.70;;
56381;SDS011;50261;51.150;4.470;2022-11-15T15:17:42;2.95;;;1.30;;
56381;SDS011;50261;51.150;4.470;2022-11-15T15:20:08;4.10;;;1.58;;
56381;SDS011;50261;51.150;4.470;2022-11-15T15:22:34;4.60;;;1.48;;
56381;SDS011;50261;51.150;4.470;2022-11-15T15:24:59;3.60;;;1.90;;
56381;SDS011;50261;51.150;4.470;2022-11-15T15:27:25;3.10;;;1.48;;
56381;SDS011;50261;51.150;4.470;2022-11-15T15:29:51;3.03;;;1.55;;
56381;SDS011;50261;51.150;4.470;2022-11-15T15:32:17;2.58;;;1.63;;
56381;SDS011;50261;51.150;4.470;2022-11-15T15:34:42;3.90;;;1.35;;
56381;SDS011;50261;51.150;4.470;2022-11-15T15:39:34;3.35;;;1.60;;
56381;SDS011;50261;51.150;4.470;2022-11-15T15:41:59;2.97;;;1.92;;
56381;SDS011;50261;51.150;4.470;2022-11-15T15:44:25;3.25;;;1.67;;
56381;SDS011;50261;51.150;4.470;2022-11-15T15:46:50;5.05;;;1.70;;
56381;SDS011;50261;51.150;4.470;2022-11-15T15:49:16;5.43;;;1.63;;
56381;SDS011;50261;51.150;4.470;2022-11-15T15:51:42;4.03;;;1.98;;
56381;SDS011;50261;51.150;4.470;2022-11-15T15:54:08;6.93;;;2.10;;
56381;SDS011;50261;51.150;4.470;2022-11-15T15:56:34;3.30;;;1.55;;
56381;SDS011;50261;51.150;4.470;2022-11-15T15:59:00;5.95;;;1.80;;
56381;SDS011;50261;51.150;4.470;2022-11-15T16:01:26;3.88;;;2.20;;
56381;SDS011;50261;51.150;4.470;2022-11-15T16:03:51;4.70;;;1.77;;
56381;SDS011;50261;51.150;4.470;2022-11-15T16:06:50;4.28;;;2.13;;
56381;SDS011;50261;51.150;4.470;2022-11-15T16:11:37;3.25;;;1.85;;
56381;SDS011;50261;51.150;4.470;2022-11-15T16:14:03;3.45;;;2.20;;
56381;SDS011;50261;51.150;4.470;2022-11-15T16:16:29;5.30;;;1.88;;
56381;SDS011;50261;51.150;4.470;2022-11-15T16:18:54;4.53;;;2.00;;
56381;SDS011;50261;51.150;4.470;2022-11-15T16:21:20;3.97;;;2.15;;
56381;SDS011;50261;51.150;4.470;2022-11-15T16:23:46;4.70;;;2.30;;
56381;SDS011;50261;51.150;4.470;2022-11-15T16:26:21;5.43;;;2.20;;
56381;SDS011;50261;51.150;4.470;2022-11-15T16:28:47;5.60;;;2.38;;
56381;SDS011;50261;51.150;4.470;2022-11-15T16:31:13;5.35;;;2.38;;
56381;SDS011;50261;51.150;4.470;2022-11-15T16:33:38;4.65;;;2.15;;
56381;SDS011;50261;51.150;4.470;2022-11-15T16:36:05;3.80;;;1.88;;
56381;SDS011;50261;51.150;4.470;2022-11-15T16:38:31;3.58;;;2.45;;
56381;SDS011;50261;51.150;4.470;2022-11-15T16:40:57;4.72;;;2.22;;
56381;SDS011;50261;51.150;4.470;2022-11-15T16:43:23;2.67;;;2.05;;
56381;SDS011;50261;51.150;4.470;2022-11-15T16:45:49;5.10;;;2.13;;
56381;SDS011;50261;51.150;4.470;2022-11-15T16:50:46;5.30;;;2.45;;
56381;SDS011;50261;51.150;4.470;2022-11-15T16:53:12;4.82;;;2.25;;
56381;SDS011;50261;51.150;4.470;2022-11-15T16:55:38;3.58;;;2.40;;
56381;SDS011;50261;51.150;4.470;2022-11-15T16:58:04;5.75;;;2.58;;
56381;SDS011;50261;51.150;4.470;2022-11-15T17:00:29;9.43;;;2.65;;
56381;SDS011;50261;51.150;4.470;2022-11-15T17:02:55;4.88;;;2.80;;
56381;SDS011;50261;51.150;4.470;2022-11-15T17:05:21;5.80;;;2.45;;
56381;SDS011;50261;51.150;4.470;2022-11-15T17:07:48;8.68;;;2.63;;
56381;SDS011;50261;51.150;4.470;2022-11-15T17:10:15;4.63;;;2.70;;
56381;SDS011;50261;51.150;4.470;2022-11-15T17:12:40;4.38;;;2.85;;
56381;SDS011;50261;51.150;4.470;2022-11-15T17:15:06;4.25;;;2.65;;
56381;SDS011;50261;51.150;4.470;2022-11-15T17:17:32;7.43;;;4.15;;
56381;SDS011;50261;51.150;4.470;2022-11-15T17:19:58;6.95;;;3.00;;
56381;SDS011;50261;51.150;4.470;2022-11-15T17:22:24;6.35;;;3.58;;
56381;SDS011;50261;51.150;4.470;2022-11-15T17:24:50;4.45;;;3.38;;
56381;SDS011;50261;51.150;4.470;2022-11-15T17:27:15;6.78;;;3.50;;
56381;SDS011;50261;51.150;4.470;2022-11-15T17:29:41;6.38;;;3.50;;
56381;SDS011;50261;51.150;4.470;2022-11-15T17:32:07;6.10;;;3.08;;
56381;SDS011;50261;51.150;4.470;2022-11-15T17:34:33;5.32;;;3.50;;
56381;SDS011;50261;51.150;4.470;2022-11-15T17:36:59;5.72;;;3.30;;
56381;SDS011;50261;51.150;4.470;2022-11-15T17:39:24;5.78;;;3.35;;
56381;SDS011;50261;51.150;4.470;2022-11-15T17:41:50;6.20;;;3.30;;
56381;SDS011;50261;51.150;4.470;2022-11-15T17:44:16;5.82;;;3.33;;
56381;SDS011;50261;51.150;4.470;2022-11-15T17:46:42;5.45;;;3.47;;
56381;SDS011;50261;51.150;4.470;2022-11-15T17:49:07;3.42;;;2.80;;
56381;SDS011;50261;51.150;4.470;2022-11-15T17:51:33;4.93;;;3.15;;
56381;SDS011;50261;51.150;4.470;2022-11-15T17:53:59;3.92;;;3.22;;
56381;SDS011;50261;51.150;4.470;2022-11-15T17:56:25;4.85;;;3.15;;